KMHR/MHR METAR and TAF weather

Enter ICAO airport designator
Station Type Date Time Source
KMHR METAR 2022/01/25 04:15 UTC NOAA

KMHR 250415Z AUTO 00000KT 8SM CLR 06/05 A3006 RMK A01


Station Type Date Time Source
KMHR Decoded METAR 2022/01/25 04:15 UTC NOAA

Sacramento, Sacramento Mather Airport, CA, United States (KMHR) 38-33N 121-18W
Jan 24, 2022 - 11:15 PM EST / 2022.01.25 0415 UTC
Wind: Calm:0
Visibility: 8 mile(s):0
Sky conditions: clear
Temperature: 42 F (6 C)
Dew Point: 41 F (5 C)
Relative Humidity: 93%
Pressure (altimeter): 30.06 in. Hg (1017 hPa)
ob: KMHR 250415Z AUTO 00000KT 8SM CLR 06/05 A3006 RMK A01
cycle: 4

Station Type Date Time Source
KMHR TAF 2022/01/24 18:27 UTC NOAA

TAF KMHR 241725Z 2418/2518 VRB05KT P6SM SKC
FM251200 VRB03KT 6SM BR SKC

Example: see airport list